sensor_id;sensor_type;location;lat;lon;timestamp;P1;durP1;ratioP1;P2;durP2;ratioP2
13487;SDS011;6816;48.506;9.050;2023-10-13T00:00:27;3.67;;;2.93;;
13487;SDS011;6816;48.506;9.050;2023-10-13T00:03:36;2.93;;;2.63;;
13487;SDS011;6816;48.506;9.050;2023-10-13T00:06:37;6.57;;;2.57;;
13487;SDS011;6816;48.506;9.050;2023-10-13T00:09:37;4.60;;;2.73;;
13487;SDS011;6816;48.506;9.050;2023-10-13T00:12:38;4.43;;;2.73;;
13487;SDS011;6816;48.506;9.050;2023-10-13T00:15:39;4.13;;;3.00;;
13487;SDS011;6816;48.506;9.050;2023-10-13T00:18:45;4.03;;;2.77;;
13487;SDS011;6816;48.506;9.050;2023-10-13T00:21:46;4.03;;;2.67;;
13487;SDS011;6816;48.506;9.050;2023-10-13T00:24:47;6.63;;;3.10;;
13487;SDS011;6816;48.506;9.050;2023-10-13T00:27:51;6.50;;;3.10;;
13487;SDS011;6816;48.506;9.050;2023-10-13T00:30:52;5.83;;;2.87;;
13487;SDS011;6816;48.506;9.050;2023-10-13T00:34:01;4.33;;;2.90;;
13487;SDS011;6816;48.506;9.050;2023-10-13T00:37:09;4.17;;;2.80;;
13487;SDS011;6816;48.506;9.050;2023-10-13T00:40:19;4.77;;;3.07;;
13487;SDS011;6816;48.506;9.050;2023-10-13T00:43:50;4.80;;;2.90;;
13487;SDS011;6816;48.506;9.050;2023-10-13T00:47:12;5.27;;;3.10;;
13487;SDS011;6816;48.506;9.050;2023-10-13T00:50:39;3.67;;;2.83;;
13487;SDS011;6816;48.506;9.050;2023-10-13T00:53:40;4.50;;;2.97;;
13487;SDS011;6816;48.506;9.050;2023-10-13T00:56:41;5.77;;;3.90;;
13487;SDS011;6816;48.506;9.050;2023-10-13T01:00:08;4.90;;;3.07;;
13487;SDS011;6816;48.506;9.050;2023-10-13T01:03:18;5.30;;;2.70;;
13487;SDS011;6816;48.506;9.050;2023-10-13T01:06:29;5.37;;;3.00;;
13487;SDS011;6816;48.506;9.050;2023-10-13T01:09:30;3.93;;;2.50;;
13487;SDS011;6816;48.506;9.050;2023-10-13T01:12:42;4.03;;;3.10;;
13487;SDS011;6816;48.506;9.050;2023-10-13T01:15:43;4.17;;;2.87;;
13487;SDS011;6816;48.506;9.050;2023-10-13T01:18:47;3.63;;;2.53;;
13487;SDS011;6816;48.506;9.050;2023-10-13T01:21:48;7.17;;;3.20;;
13487;SDS011;6816;48.506;9.050;2023-10-13T01:24:49;3.87;;;2.67;;
13487;SDS011;6816;48.506;9.050;2023-10-13T01:27:51;3.97;;;2.93;;
13487;SDS011;6816;48.506;9.050;2023-10-13T01:30:52;5.33;;;2.93;;
13487;SDS011;6816;48.506;9.050;2023-10-13T01:33:53;2.93;;;2.60;;
13487;SDS011;6816;48.506;9.050;2023-10-13T01:36:55;3.53;;;3.00;;
13487;SDS011;6816;48.506;9.050;2023-10-13T01:39:56;4.17;;;2.90;;
13487;SDS011;6816;48.506;9.050;2023-10-13T01:42:56;4.13;;;3.03;;
13487;SDS011;6816;48.506;9.050;2023-10-13T01:45:57;3.73;;;2.57;;
13487;SDS011;6816;48.506;9.050;2023-10-13T01:48:57;3.53;;;2.43;;
13487;SDS011;6816;48.506;9.050;2023-10-13T01:51:58;3.07;;;2.50;;
13487;SDS011;6816;48.506;9.050;2023-10-13T01:55:03;3.80;;;2.43;;
13487;SDS011;6816;48.506;9.050;2023-10-13T01:58:06;3.83;;;2.53;;
13487;SDS011;6816;48.506;9.050;2023-10-13T02:01:14;5.30;;;2.63;;
13487;SDS011;6816;48.506;9.050;2023-10-13T02:04:27;3.60;;;2.87;;
13487;SDS011;6816;48.506;9.050;2023-10-13T02:07:28;5.17;;;2.67;;
13487;SDS011;6816;48.506;9.050;2023-10-13T02:10:34;4.37;;;2.60;;
13487;SDS011;6816;48.506;9.050;2023-10-13T02:13:34;2.80;;;2.50;;
13487;SDS011;6816;48.506;9.050;2023-10-13T02:16:48;5.20;;;2.70;;
13487;SDS011;6816;48.506;9.050;2023-10-13T02:20:12;4.13;;;2.93;;
13487;SDS011;6816;48.506;9.050;2023-10-13T02:23:14;4.73;;;2.60;;
13487;SDS011;6816;48.506;9.050;2023-10-13T02:26:15;5.43;;;2.77;;
13487;SDS011;6816;48.506;9.050;2023-10-13T02:29:27;3.33;;;2.63;;
13487;SDS011;6816;48.506;9.050;2023-10-13T02:32:28;5.30;;;2.43;;
13487;SDS011;6816;48.506;9.050;2023-10-13T02:35:30;5.40;;;2.70;;
13487;SDS011;6816;48.506;9.050;2023-10-13T02:38:41;4.03;;;2.87;;
13487;SDS011;6816;48.506;9.050;2023-10-13T02:41:47;6.30;;;3.40;;
13487;SDS011;6816;48.506;9.050;2023-10-13T02:44:48;4.27;;;2.80;;
13487;SDS011;6816;48.506;9.050;2023-10-13T02:47:51;4.37;;;2.67;;
13487;SDS011;6816;48.506;9.050;2023-10-13T02:51:10;3.20;;;2.50;;
13487;SDS011;6816;48.506;9.050;2023-10-13T02:54:25;3.57;;;2.73;;
13487;SDS011;6816;48.506;9.050;2023-10-13T02:57:31;3.30;;;2.30;;
13487;SDS011;6816;48.506;9.050;2023-10-13T03:00:34;5.23;;;2.73;;
13487;SDS011;6816;48.506;9.050;2023-10-13T03:03:35;5.93;;;3.30;;
13487;SDS011;6816;48.506;9.050;2023-10-13T03:06:36;4.03;;;2.60;;
13487;SDS011;6816;48.506;9.050;2023-10-13T03:09:40;3.27;;;2.40;;
13487;SDS011;6816;48.506;9.050;2023-10-13T03:12:49;3.90;;;2.30;;
13487;SDS011;6816;48.506;9.050;2023-10-13T03:15:50;3.57;;;3.00;;
13487;SDS011;6816;48.506;9.050;2023-10-13T03:18:51;4.73;;;2.67;;
13487;SDS011;6816;48.506;9.050;2023-10-13T03:21:55;3.60;;;2.77;;
13487;SDS011;6816;48.506;9.050;2023-10-13T03:24:57;4.10;;;2.50;;
13487;SDS011;6816;48.506;9.050;2023-10-13T03:28:05;4.83;;;2.57;;
13487;SDS011;6816;48.506;9.050;2023-10-13T03:31:07;4.33;;;2.63;;
13487;SDS011;6816;48.506;9.050;2023-10-13T03:34:08;4.23;;;2.50;;
13487;SDS011;6816;48.506;9.050;2023-10-13T03:37:12;4.40;;;3.00;;
13487;SDS011;6816;48.506;9.050;2023-10-13T03:40:18;3.00;;;2.70;;
13487;SDS011;6816;48.506;9.050;2023-10-13T03:43:22;5.80;;;2.80;;
13487;SDS011;6816;48.506;9.050;2023-10-13T03:46:23;3.93;;;2.77;;
13487;SDS011;6816;48.506;9.050;2023-10-13T03:49:24;6.03;;;3.00;;
13487;SDS011;6816;48.506;9.050;2023-10-13T03:52:25;4.00;;;2.73;;
13487;SDS011;6816;48.506;9.050;2023-10-13T03:55:25;5.00;;;3.13;;
13487;SDS011;6816;48.506;9.050;2023-10-13T03:58:29;6.03;;;2.93;;
13487;SDS011;6816;48.506;9.050;2023-10-13T04:01:30;6.03;;;2.50;;
13487;SDS011;6816;48.506;9.050;2023-10-13T04:04:45;5.07;;;2.87;;
13487;SDS011;6816;48.506;9.050;2023-10-13T04:07:53;3.63;;;2.67;;
13487;SDS011;6816;48.506;9.050;2023-10-13T04:11:28;4.17;;;2.93;;
13487;SDS011;6816;48.506;9.050;2023-10-13T04:14:52;4.33;;;2.80;;
13487;SDS011;6816;48.506;9.050;2023-10-13T04:17:53;4.80;;;3.07;;
13487;SDS011;6816;48.506;9.050;2023-10-13T04:20:53;2.90;;;2.67;;
13487;SDS011;6816;48.506;9.050;2023-10-13T04:24:08;3.03;;;2.63;;
13487;SDS011;6816;48.506;9.050;2023-10-13T04:27:18;3.90;;;2.60;;
13487;SDS011;6816;48.506;9.050;2023-10-13T04:30:42;4.50;;;2.60;;
13487;SDS011;6816;48.506;9.050;2023-10-13T04:34:26;3.60;;;2.67;;
13487;SDS011;6816;48.506;9.050;2023-10-13T04:37:39;5.70;;;2.50;;
13487;SDS011;6816;48.506;9.050;2023-10-13T04:41:00;4.23;;;2.67;;
13487;SDS011;6816;48.506;9.050;2023-10-13T04:44:10;4.97;;;3.40;;
13487;SDS011;6816;48.506;9.050;2023-10-13T04:47:30;4.23;;;2.70;;
13487;SDS011;6816;48.506;9.050;2023-10-13T04:50:59;5.10;;;3.07;;
13487;SDS011;6816;48.506;9.050;2023-10-13T04:54:21;3.90;;;2.63;;
13487;SDS011;6816;48.506;9.050;2023-10-13T04:57:33;5.80;;;3.60;;
13487;SDS011;6816;48.506;9.050;2023-10-13T05:00:46;3.90;;;2.80;;
13487;SDS011;6816;48.506;9.050;2023-10-13T05:04:21;3.27;;;2.67;;
13487;SDS011;6816;48.506;9.050;2023-10-13T05:08:12;4.17;;;2.70;;
13487;SDS011;6816;48.506;9.050;2023-10-13T05:11:34;3.00;;;2.63;;
13487;SDS011;6816;48.506;9.050;2023-10-13T05:15:00;3.57;;;2.90;;
13487;SDS011;6816;48.506;9.050;2023-10-13T05:18:24;4.67;;;2.77;;
13487;SDS011;6816;48.506;9.050;2023-10-13T06:03:19;3.97;;;2.77;;
13487;SDS011;6816;48.506;9.050;2023-10-13T06:06:48;4.53;;;2.93;;
13487;SDS011;6816;48.506;9.050;2023-10-13T06:10:09;5.93;;;3.43;;
13487;SDS011;6816;48.506;9.050;2023-10-13T06:13:31;4.67;;;3.23;;
13487;SDS011;6816;48.506;9.050;2023-10-13T06:16:56;3.40;;;3.00;;
13487;SDS011;6816;48.506;9.050;2023-10-13T06:20:18;3.60;;;2.73;;
13487;SDS011;6816;48.506;9.050;2023-10-13T06:23:39;3.57;;;3.03;;
13487;SDS011;6816;48.506;9.050;2023-10-13T06:27:22;3.60;;;3.03;;
13487;SDS011;6816;48.506;9.050;2023-10-13T06:31:20;4.67;;;3.03;;
13487;SDS011;6816;48.506;9.050;2023-10-13T06:34:25;6.10;;;3.23;;
13487;SDS011;6816;48.506;9.050;2023-10-13T06:37:37;6.37;;;3.67;;
13487;SDS011;6816;48.506;9.050;2023-10-13T06:40:44;4.10;;;3.33;;
13487;SDS011;6816;48.506;9.050;2023-10-13T06:43:48;3.50;;;3.10;;
13487;SDS011;6816;48.506;9.050;2023-10-13T06:46:59;4.10;;;3.30;;
13487;SDS011;6816;48.506;9.050;2023-10-13T06:50:04;4.83;;;3.47;;
13487;SDS011;6816;48.506;9.050;2023-10-13T06:53:15;5.30;;;3.80;;
13487;SDS011;6816;48.506;9.050;2023-10-13T06:56:16;4.50;;;3.57;;
13487;SDS011;6816;48.506;9.050;2023-10-13T06:59:22;6.80;;;3.53;;
13487;SDS011;6816;48.506;9.050;2023-10-13T07:02:26;9.60;;;4.87;;
13487;SDS011;6816;48.506;9.050;2023-10-13T07:05:36;5.37;;;3.63;;
13487;SDS011;6816;48.506;9.050;2023-10-13T07:08:38;5.40;;;3.77;;
13487;SDS011;6816;48.506;9.050;2023-10-13T07:11:38;4.53;;;3.30;;
13487;SDS011;6816;48.506;9.050;2023-10-13T07:14:46;5.37;;;3.50;;
13487;SDS011;6816;48.506;9.050;2023-10-13T07:17:59;4.90;;;4.00;;
13487;SDS011;6816;48.506;9.050;2023-10-13T07:20:59;6.33;;;3.90;;
13487;SDS011;6816;48.506;9.050;2023-10-13T07:24:09;7.03;;;3.63;;
13487;SDS011;6816;48.506;9.050;2023-10-13T07:27:11;9.73;;;4.40;;
13487;SDS011;6816;48.506;9.050;2023-10-13T07:30:22;7.80;;;4.40;;
13487;SDS011;6816;48.506;9.050;2023-10-13T07:33:26;8.47;;;3.97;;
13487;SDS011;6816;48.506;9.050;2023-10-13T07:36:27;4.90;;;4.17;;
13487;SDS011;6816;48.506;9.050;2023-10-13T07:39:39;6.67;;;4.40;;
13487;SDS011;6816;48.506;9.050;2023-10-13T07:42:40;7.20;;;4.27;;
13487;SDS011;6816;48.506;9.050;2023-10-13T07:45:43;5.00;;;3.80;;
13487;SDS011;6816;48.506;9.050;2023-10-13T07:48:43;8.00;;;3.63;;
13487;SDS011;6816;48.506;9.050;2023-10-13T07:51:46;6.20;;;3.97;;
13487;SDS011;6816;48.506;9.050;2023-10-13T07:54:49;11.40;;;4.70;;
13487;SDS011;6816;48.506;9.050;2023-10-13T07:58:03;6.53;;;4.07;;
13487;SDS011;6816;48.506;9.050;2023-10-13T08:01:07;6.57;;;4.40;;
13487;SDS011;6816;48.506;9.050;2023-10-13T08:04:09;7.67;;;4.27;;
13487;SDS011;6816;48.506;9.050;2023-10-13T08:07:12;8.97;;;4.70;;
13487;SDS011;6816;48.506;9.050;2023-10-13T08:10:13;6.73;;;4.90;;
13487;SDS011;6816;48.506;9.050;2023-10-13T08:13:16;5.53;;;4.23;;
13487;SDS011;6816;48.506;9.050;2023-10-13T08:16:18;6.43;;;4.00;;
13487;SDS011;6816;48.506;9.050;2023-10-13T08:19:23;8.27;;;4.47;;
13487;SDS011;6816;48.506;9.050;2023-10-13T08:22:27;6.97;;;5.13;;
13487;SDS011;6816;48.506;9.050;2023-10-13T08:25:35;7.50;;;4.60;;
13487;SDS011;6816;48.506;9.050;2023-10-13T08:28:58;7.27;;;3.70;;
13487;SDS011;6816;48.506;9.050;2023-10-13T08:32:19;4.97;;;3.60;;
13487;SDS011;6816;48.506;9.050;2023-10-13T08:35:27;5.70;;;3.37;;
13487;SDS011;6816;48.506;9.050;2023-10-13T08:38:35;6.50;;;3.85;;
13487;SDS011;6816;48.506;9.050;2023-10-13T08:41:50;4.65;;;3.20;;
13487;SDS011;6816;48.506;9.050;2023-10-13T08:45:12;6.33;;;3.30;;
13487;SDS011;6816;48.506;9.050;2023-10-13T08:48:26;8.40;;;3.67;;
13487;SDS011;6816;48.506;9.050;2023-10-13T08:51:33;4.43;;;3.17;;
13487;SDS011;6816;48.506;9.050;2023-10-13T08:54:50;5.07;;;3.53;;
13487;SDS011;6816;48.506;9.050;2023-10-13T08:58:12;4.82;;;2.80;;
13487;SDS011;6816;48.506;9.050;2023-10-13T09:01:13;6.40;;;3.53;;
13487;SDS011;6816;48.506;9.050;2023-10-13T09:04:34;3.88;;;2.67;;
13487;SDS011;6816;48.506;9.050;2023-10-13T09:07:44;8.68;;;3.28;;
13487;SDS011;6816;48.506;9.050;2023-10-13T09:10:47;6.35;;;2.83;;
13487;SDS011;6816;48.506;9.050;2023-10-13T09:14:12;6.45;;;2.50;;
13487;SDS011;6816;48.506;9.050;2023-10-13T09:17:40;4.78;;;2.85;;
13487;SDS011;6816;48.506;9.050;2023-10-13T09:20:58;8.32;;;3.47;;
13487;SDS011;6816;48.506;9.050;2023-10-13T09:24:24;7.15;;;2.97;;
13487;SDS011;6816;48.506;9.050;2023-10-13T09:27:37;5.75;;;3.45;;
13487;SDS011;6816;48.506;9.050;2023-10-13T09:30:57;5.10;;;2.92;;
13487;SDS011;6816;48.506;9.050;2023-10-13T09:34:09;6.68;;;3.00;;
13487;SDS011;6816;48.506;9.050;2023-10-13T09:37:22;4.28;;;2.47;;
13487;SDS011;6816;48.506;9.050;2023-10-13T09:40:49;7.38;;;2.70;;
13487;SDS011;6816;48.506;9.050;2023-10-13T10:22:29;4.95;;;2.47;;
13487;SDS011;6816;48.506;9.050;2023-10-13T10:25:33;4.03;;;2.20;;
13487;SDS011;6816;48.506;9.050;2023-10-13T10:28:35;5.13;;;2.55;;
13487;SDS011;6816;48.506;9.050;2023-10-13T10:31:42;5.13;;;2.30;;
13487;SDS011;6816;48.506;9.050;2023-10-13T10:34:45;4.00;;;1.98;;
13487;SDS011;6816;48.506;9.050;2023-10-13T10:37:47;4.38;;;1.92;;
13487;SDS011;6816;48.506;9.050;2023-10-13T10:40:58;2.97;;;2.08;;
13487;SDS011;6816;48.506;9.050;2023-10-13T10:43:59;3.35;;;1.85;;
13487;SDS011;6816;48.506;9.050;2023-10-13T10:47:12;3.70;;;2.35;;
13487;SDS011;6816;48.506;9.050;2023-10-13T10:50:31;4.22;;;2.42;;
13487;SDS011;6816;48.506;9.050;2023-10-13T10:53:37;4.03;;;2.05;;
13487;SDS011;6816;48.506;9.050;2023-10-13T10:56:44;5.65;;;1.90;;
13487;SDS011;6816;48.506;9.050;2023-10-13T10:59:52;3.15;;;1.83;;
13487;SDS011;6816;48.506;9.050;2023-10-13T11:03:11;5.80;;;1.85;;
13487;SDS011;6816;48.506;9.050;2023-10-13T11:06:12;5.10;;;2.17;;
13487;SDS011;6816;48.506;9.050;2023-10-13T11:09:22;3.45;;;1.95;;
13487;SDS011;6816;48.506;9.050;2023-10-13T11:12:24;3.35;;;1.95;;
13487;SDS011;6816;48.506;9.050;2023-10-13T11:15:26;4.13;;;1.75;;
13487;SDS011;6816;48.506;9.050;2023-10-13T11:18:33;3.22;;;1.90;;
13487;SDS011;6816;48.506;9.050;2023-10-13T11:21:38;3.20;;;1.95;;
13487;SDS011;6816;48.506;9.050;2023-10-13T11:24:42;3.88;;;1.83;;
13487;SDS011;6816;48.506;9.050;2023-10-13T11:27:42;2.88;;;1.85;;
13487;SDS011;6816;48.506;9.050;2023-10-13T11:30:49;4.50;;;2.13;;
13487;SDS011;6816;48.506;9.050;2023-10-13T11:33:50;2.78;;;1.83;;
13487;SDS011;6816;48.506;9.050;2023-10-13T11:36:52;2.97;;;1.95;;
13487;SDS011;6816;48.506;9.050;2023-10-13T11:39:53;4.55;;;2.03;;
13487;SDS011;6816;48.506;9.050;2023-10-13T11:42:53;4.47;;;2.00;;
13487;SDS011;6816;48.506;9.050;2023-10-13T11:45:58;2.17;;;1.90;;
13487;SDS011;6816;48.506;9.050;2023-10-13T11:49:11;3.85;;;2.00;;
13487;SDS011;6816;48.506;9.050;2023-10-13T12:03:57;4.18;;;2.00;;
13487;SDS011;6816;48.506;9.050;2023-10-13T12:07:21;3.13;;;2.10;;
13487;SDS011;6816;48.506;9.050;2023-10-13T12:10:48;2.40;;;2.20;;
13487;SDS011;6816;48.506;9.050;2023-10-13T12:13:59;3.15;;;2.03;;
13487;SDS011;6816;48.506;9.050;2023-10-13T12:17:21;5.18;;;2.20;;
13487;SDS011;6816;48.506;9.050;2023-10-13T12:20:36;2.92;;;2.20;;
13487;SDS011;6816;48.506;9.050;2023-10-13T12:23:37;4.90;;;2.55;;
13487;SDS011;6816;48.506;9.050;2023-10-13T12:26:48;2.50;;;1.98;;
13487;SDS011;6816;48.506;9.050;2023-10-13T12:29:56;3.78;;;2.15;;
13487;SDS011;6816;48.506;9.050;2023-10-13T12:33:12;3.78;;;2.20;;
13487;SDS011;6816;48.506;9.050;2023-10-13T12:36:23;2.58;;;2.08;;
13487;SDS011;6816;48.506;9.050;2023-10-13T12:39:32;2.72;;;2.05;;
13487;SDS011;6816;48.506;9.050;2023-10-13T12:42:51;2.35;;;2.00;;
13487;SDS011;6816;48.506;9.050;2023-10-13T12:46:10;4.15;;;2.30;;
13487;SDS011;6816;48.506;9.050;2023-10-13T12:49:34;6.82;;;2.30;;
13487;SDS011;6816;48.506;9.050;2023-10-13T12:52:58;3.90;;;2.25;;
13487;SDS011;6816;48.506;9.050;2023-10-13T12:55:59;3.63;;;2.50;;
13487;SDS011;6816;48.506;9.050;2023-10-13T12:59:09;2.55;;;1.92;;
13487;SDS011;6816;48.506;9.050;2023-10-13T13:02:14;2.50;;;2.03;;
13487;SDS011;6816;48.506;9.050;2023-10-13T13:05:15;3.13;;;2.00;;
13487;SDS011;6816;48.506;9.050;2023-10-13T13:08:16;3.05;;;1.95;;
13487;SDS011;6816;48.506;9.050;2023-10-13T13:11:22;3.33;;;1.90;;
13487;SDS011;6816;48.506;9.050;2023-10-13T13:14:26;5.28;;;2.00;;
13487;SDS011;6816;48.506;9.050;2023-10-13T13:17:34;3.70;;;2.20;;
13487;SDS011;6816;48.506;9.050;2023-10-13T13:20:50;4.45;;;2.33;;
13487;SDS011;6816;48.506;9.050;2023-10-13T13:23:54;3.03;;;1.85;;
13487;SDS011;6816;48.506;9.050;2023-10-13T13:26:56;4.57;;;2.20;;
13487;SDS011;6816;48.506;9.050;2023-10-13T13:30:05;3.08;;;2.05;;
13487;SDS011;6816;48.506;9.050;2023-10-13T13:33:12;2.13;;;1.70;;
13487;SDS011;6816;48.506;9.050;2023-10-13T13:36:14;3.88;;;2.05;;
13487;SDS011;6816;48.506;9.050;2023-10-13T13:39:15;2.33;;;2.13;;
13487;SDS011;6816;48.506;9.050;2023-10-13T13:42:18;2.53;;;1.75;;
13487;SDS011;6816;48.506;9.050;2023-10-13T13:45:20;2.83;;;1.95;;
13487;SDS011;6816;48.506;9.050;2023-10-13T13:48:29;4.57;;;2.05;;
13487;SDS011;6816;48.506;9.050;2023-10-13T13:51:31;2.95;;;1.80;;
13487;SDS011;6816;48.506;9.050;2023-10-13T13:54:32;2.67;;;1.90;;
13487;SDS011;6816;48.506;9.050;2023-10-13T13:57:32;2.25;;;1.88;;
13487;SDS011;6816;48.506;9.050;2023-10-13T14:00:33;4.88;;;2.10;;
13487;SDS011;6816;48.506;9.050;2023-10-13T14:03:49;3.83;;;2.10;;
13487;SDS011;6816;48.506;9.050;2023-10-13T14:06:50;3.70;;;1.90;;
13487;SDS011;6816;48.506;9.050;2023-10-13T14:09:51;1.98;;;1.77;;
13487;SDS011;6816;48.506;9.050;2023-10-13T14:12:52;4.28;;;1.95;;
13487;SDS011;6816;48.506;9.050;2023-10-13T14:15:53;10.98;;;1.80;;
13487;SDS011;6816;48.506;9.050;2023-10-13T14:18:56;4.95;;;1.85;;
13487;SDS011;6816;48.506;9.050;2023-10-13T14:21:57;2.03;;;1.70;;
13487;SDS011;6816;48.506;9.050;2023-10-13T14:24:59;2.67;;;1.52;;
13487;SDS011;6816;48.506;9.050;2023-10-13T14:28:08;2.97;;;1.90;;
13487;SDS011;6816;48.506;9.050;2023-10-13T14:31:11;2.60;;;1.70;;
13487;SDS011;6816;48.506;9.050;2023-10-13T14:34:14;2.00;;;1.67;;
13487;SDS011;6816;48.506;9.050;2023-10-13T14:37:14;2.28;;;1.50;;
13487;SDS011;6816;48.506;9.050;2023-10-13T14:40:26;1.60;;;1.50;;
13487;SDS011;6816;48.506;9.050;2023-10-13T14:43:26;4.15;;;1.90;;
13487;SDS011;6816;48.506;9.050;2023-10-13T14:46:27;2.63;;;1.80;;
13487;SDS011;6816;48.506;9.050;2023-10-13T14:49:27;3.92;;;1.60;;
13487;SDS011;6816;48.506;9.050;2023-10-13T14:52:28;5.25;;;1.50;;
13487;SDS011;6816;48.506;9.050;2023-10-13T14:55:32;2.15;;;1.40;;
13487;SDS011;6816;48.506;9.050;2023-10-13T14:58:39;2.63;;;1.40;;
13487;SDS011;6816;48.506;9.050;2023-10-13T15:01:43;1.60;;;1.50;;
13487;SDS011;6816;48.506;9.050;2023-10-13T15:04:44;3.28;;;1.50;;
13487;SDS011;6816;48.506;9.050;2023-10-13T15:07:48;3.20;;;1.58;;
13487;SDS011;6816;48.506;9.050;2023-10-13T15:10:49;4.35;;;1.60;;
13487;SDS011;6816;48.506;9.050;2023-10-13T15:13:49;3.08;;;1.90;;
13487;SDS011;6816;48.506;9.050;2023-10-13T15:16:50;3.88;;;1.65;;
13487;SDS011;6816;48.506;9.050;2023-10-13T15:19:52;5.50;;;2.13;;
13487;SDS011;6816;48.506;9.050;2023-10-13T15:22:52;13.15;;;2.35;;
13487;SDS011;6816;48.506;9.050;2023-10-13T15:26:03;2.80;;;2.03;;
13487;SDS011;6816;48.506;9.050;2023-10-13T15:29:09;2.90;;;1.95;;
13487;SDS011;6816;48.506;9.050;2023-10-13T15:32:12;2.78;;;1.60;;
13487;SDS011;6816;48.506;9.050;2023-10-13T15:35:16;2.30;;;1.70;;
13487;SDS011;6816;48.506;9.050;2023-10-13T15:38:17;3.55;;;2.13;;
13487;SDS011;6816;48.506;9.050;2023-10-13T15:41:25;2.08;;;1.80;;
13487;SDS011;6816;48.506;9.050;2023-10-13T15:44:26;3.90;;;2.05;;
13487;SDS011;6816;48.506;9.050;2023-10-13T15:47:29;2.70;;;1.83;;
13487;SDS011;6816;48.506;9.050;2023-10-13T15:50:37;4.30;;;2.47;;
13487;SDS011;6816;48.506;9.050;2023-10-13T15:53:41;4.85;;;1.83;;
13487;SDS011;6816;48.506;9.050;2023-10-13T15:56:44;3.30;;;2.13;;
13487;SDS011;6816;48.506;9.050;2023-10-13T15:59:46;5.03;;;2.28;;
13487;SDS011;6816;48.506;9.050;2023-10-13T16:02:47;3.55;;;2.30;;
13487;SDS011;6816;48.506;9.050;2023-10-13T16:05:50;3.65;;;2.72;;
13487;SDS011;6816;48.506;9.050;2023-10-13T16:08:54;2.78;;;2.38;;
13487;SDS011;6816;48.506;9.050;2023-10-13T16:11:55;3.70;;;2.25;;
13487;SDS011;6816;48.506;9.050;2023-10-13T16:14:58;4.35;;;2.05;;
13487;SDS011;6816;48.506;9.050;2023-10-13T16:17:58;4.47;;;2.35;;
13487;SDS011;6816;48.506;9.050;2023-10-13T16:20:59;4.00;;;2.45;;
13487;SDS011;6816;48.506;9.050;2023-10-13T16:24:03;4.45;;;3.20;;
13487;SDS011;6816;48.506;9.050;2023-10-13T16:27:04;6.13;;;3.10;;
13487;SDS011;6816;48.506;9.050;2023-10-13T16:30:05;6.25;;;3.00;;
13487;SDS011;6816;48.506;9.050;2023-10-13T16:33:09;5.65;;;3.47;;
13487;SDS011;6816;48.506;9.050;2023-10-13T16:36:10;8.60;;;4.38;;
13487;SDS011;6816;48.506;9.050;2023-10-13T16:39:10;6.13;;;3.50;;
13487;SDS011;6816;48.506;9.050;2023-10-13T16:42:14;5.47;;;3.20;;
13487;SDS011;6816;48.506;9.050;2023-10-13T16:45:15;4.28;;;2.83;;
13487;SDS011;6816;48.506;9.050;2023-10-13T16:48:21;4.32;;;2.70;;
13487;SDS011;6816;48.506;9.050;2023-10-13T16:51:22;5.03;;;3.10;;
13487;SDS011;6816;48.506;9.050;2023-10-13T16:54:22;5.43;;;2.40;;
13487;SDS011;6816;48.506;9.050;2023-10-13T16:57:23;3.83;;;3.00;;
13487;SDS011;6816;48.506;9.050;2023-10-13T17:00:23;6.68;;;3.38;;
13487;SDS011;6816;48.506;9.050;2023-10-13T17:03:27;6.45;;;3.50;;
13487;SDS011;6816;48.506;9.050;2023-10-13T17:06:30;6.90;;;4.28;;
13487;SDS011;6816;48.506;9.050;2023-10-13T17:09:31;7.65;;;5.22;;
13487;SDS011;6816;48.506;9.050;2023-10-13T17:12:33;7.80;;;5.05;;
13487;SDS011;6816;48.506;9.050;2023-10-13T17:15:35;7.57;;;5.90;;
13487;SDS011;6816;48.506;9.050;2023-10-13T17:18:37;8.43;;;6.55;;
13487;SDS011;6816;48.506;9.050;2023-10-13T17:21:38;8.05;;;6.40;;
13487;SDS011;6816;48.506;9.050;2023-10-13T17:24:39;12.38;;;6.72;;
13487;SDS011;6816;48.506;9.050;2023-10-13T17:27:39;10.60;;;6.60;;
13487;SDS011;6816;48.506;9.050;2023-10-13T17:30:41;9.63;;;6.78;;
13487;SDS011;6816;48.506;9.050;2023-10-13T17:33:49;9.52;;;6.53;;
13487;SDS011;6816;48.506;9.050;2023-10-13T17:36:50;8.15;;;5.53;;
13487;SDS011;6816;48.506;9.050;2023-10-13T17:39:50;10.15;;;5.18;;
13487;SDS011;6816;48.506;9.050;2023-10-13T17:42:51;9.25;;;5.60;;
13487;SDS011;6816;48.506;9.050;2023-10-13T17:45:52;9.23;;;4.93;;
13487;SDS011;6816;48.506;9.050;2023-10-13T17:48:52;6.38;;;4.10;;
13487;SDS011;6816;48.506;9.050;2023-10-13T17:51:55;5.65;;;3.80;;
13487;SDS011;6816;48.506;9.050;2023-10-13T17:54:56;6.53;;;3.22;;
13487;SDS011;6816;48.506;9.050;2023-10-13T17:57:56;4.45;;;3.30;;
13487;SDS011;6816;48.506;9.050;2023-10-13T18:01:04;4.00;;;2.72;;
13487;SDS011;6816;48.506;9.050;2023-10-13T18:04:06;5.03;;;2.50;;
13487;SDS011;6816;48.506;9.050;2023-10-13T18:07:09;3.72;;;2.70;;
13487;SDS011;6816;48.506;9.050;2023-10-13T18:10:11;4.97;;;2.95;;
13487;SDS011;6816;48.506;9.050;2023-10-13T18:13:16;5.35;;;3.22;;
13487;SDS011;6816;48.506;9.050;2023-10-13T18:16:20;6.80;;;2.70;;
13487;SDS011;6816;48.506;9.050;2023-10-13T18:19:22;3.22;;;2.40;;
13487;SDS011;6816;48.506;9.050;2023-10-13T18:22:28;8.85;;;6.90;;
13487;SDS011;6816;48.506;9.050;2023-10-13T18:25:37;5.88;;;3.92;;
13487;SDS011;6816;48.506;9.050;2023-10-13T18:28:46;4.78;;;3.30;;
13487;SDS011;6816;48.506;9.050;2023-10-13T18:31:50;3.03;;;2.67;;
13487;SDS011;6816;48.506;9.050;2023-10-13T18:34:51;8.32;;;3.55;;
13487;SDS011;6816;48.506;9.050;2023-10-13T18:37:52;5.65;;;3.35;;
13487;SDS011;6816;48.506;9.050;2023-10-13T18:40:57;7.05;;;3.60;;
13487;SDS011;6816;48.506;9.050;2023-10-13T18:44:00;5.20;;;3.58;;
13487;SDS011;6816;48.506;9.050;2023-10-13T18:47:01;5.72;;;3.88;;
13487;SDS011;6816;48.506;9.050;2023-10-13T18:50:05;8.35;;;3.72;;
13487;SDS011;6816;48.506;9.050;2023-10-13T18:53:06;4.97;;;3.45;;
13487;SDS011;6816;48.506;9.050;2023-10-13T18:59:19;6.72;;;3.80;;
13487;SDS011;6816;48.506;9.050;2023-10-13T19:02:20;4.88;;;3.30;;
13487;SDS011;6816;48.506;9.050;2023-10-13T19:05:21;6.65;;;3.80;;
13487;SDS011;6816;48.506;9.050;2023-10-13T19:08:21;6.50;;;3.00;;
13487;SDS011;6816;48.506;9.050;2023-10-13T19:11:24;3.80;;;2.97;;
13487;SDS011;6816;48.506;9.050;2023-10-13T19:14:25;6.47;;;3.08;;
13487;SDS011;6816;48.506;9.050;2023-10-13T19:17:26;4.60;;;2.95;;
13487;SDS011;6816;48.506;9.050;2023-10-13T19:20:27;4.88;;;3.08;;
13487;SDS011;6816;48.506;9.050;2023-10-13T19:23:30;11.38;;;3.63;;
13487;SDS011;6816;48.506;9.050;2023-10-13T19:26:31;4.65;;;3.10;;
13487;SDS011;6816;48.506;9.050;2023-10-13T19:29:33;5.28;;;4.35;;
13487;SDS011;6816;48.506;9.050;2023-10-13T19:32:34;5.57;;;3.63;;
13487;SDS011;6816;48.506;9.050;2023-10-13T19:35:39;6.80;;;3.83;;
13487;SDS011;6816;48.506;9.050;2023-10-13T19:38:43;10.13;;;4.00;;
13487;SDS011;6816;48.506;9.050;2023-10-13T19:41:44;6.55;;;4.28;;
13487;SDS011;6816;48.506;9.050;2023-10-13T19:44:45;8.35;;;3.90;;
13487;SDS011;6816;48.506;9.050;2023-10-13T19:47:46;7.10;;;5.05;;
13487;SDS011;6816;48.506;9.050;2023-10-13T19:50:50;6.05;;;4.18;;
13487;SDS011;6816;48.506;9.050;2023-10-13T19:53:55;6.32;;;3.72;;
13487;SDS011;6816;48.506;9.050;2023-10-13T19:56:57;6.22;;;3.78;;
13487;SDS011;6816;48.506;9.050;2023-10-13T19:59:57;5.82;;;4.50;;
13487;SDS011;6816;48.506;9.050;2023-10-13T20:02:58;5.38;;;3.80;;
13487;SDS011;6816;48.506;9.050;2023-10-13T20:05:59;5.10;;;4.07;;
13487;SDS011;6816;48.506;9.050;2023-10-13T20:08:59;5.60;;;3.47;;
13487;SDS011;6816;48.506;9.050;2023-10-13T20:12:12;4.47;;;3.70;;
13487;SDS011;6816;48.506;9.050;2023-10-13T20:15:16;5.10;;;3.50;;
13487;SDS011;6816;48.506;9.050;2023-10-13T20:18:18;5.88;;;3.80;;
13487;SDS011;6816;48.506;9.050;2023-10-13T20:21:19;4.18;;;3.58;;
13487;SDS011;6816;48.506;9.050;2023-10-13T20:24:23;6.07;;;3.70;;
13487;SDS011;6816;48.506;9.050;2023-10-13T20:27:24;3.83;;;3.47;;
13487;SDS011;6816;48.506;9.050;2023-10-13T20:30:25;6.57;;;3.65;;
13487;SDS011;6816;48.506;9.050;2023-10-13T20:33:25;5.53;;;3.75;;
13487;SDS011;6816;48.506;9.050;2023-10-13T20:36:30;4.38;;;3.40;;